createdAt,value
2022-12-14T00:01:45.116Z,-0.50
2022-12-14T00:04:17.542Z,-0.50
2022-12-14T00:06:44.983Z,-0.50
2022-12-14T00:09:12.449Z,-0.50
2022-12-14T00:11:40.109Z,-0.50
2022-12-14T00:14:07.598Z,-0.50
2022-12-14T00:16:36.695Z,-0.50
2022-12-14T00:19:05.667Z,-0.50
2022-12-14T00:21:34.003Z,-0.50
2022-12-14T00:24:01.724Z,-0.50
2022-12-14T00:26:33.116Z,-0.50
2022-12-14T00:29:01.837Z,-0.60
2022-12-14T00:31:31.180Z,-0.60
2022-12-14T00:33:59.558Z,-0.60
2022-12-14T00:36:27.071Z,-0.50
2022-12-14T00:38:54.509Z,0.60
2022-12-14T00:41:22.014Z,-0.60
2022-12-14T00:43:49.770Z,-0.60
2022-12-14T00:46:18.105Z,-0.60
2022-12-14T00:48:46.637Z,-0.60
2022-12-14T00:51:15.102Z,-0.60
2022-12-14T00:53:44.766Z,-0.60
2022-12-14T00:56:12.871Z,-0.60
2022-12-14T00:58:40.575Z,-0.60
2022-12-14T01:01:12.908Z,-0.70
2022-12-14T01:03:40.623Z,-0.60
2022-12-14T01:06:17.715Z,-0.70
2022-12-14T01:08:45.592Z,-0.70
2022-12-14T01:11:13.624Z,-0.70
2022-12-14T01:13:41.517Z,-0.70
2022-12-14T01:16:10.924Z,-0.70
2022-12-14T01:18:40.055Z,-0.70
2022-12-14T01:21:19.424Z,-0.70
2022-12-14T01:23:48.485Z,-0.70
2022-12-14T01:26:17.768Z,-0.70
2022-12-14T01:28:46.710Z,-0.70
2022-12-14T01:31:17.189Z,-0.70
2022-12-14T01:33:45.390Z,-0.70
2022-12-14T01:36:16.012Z,-0.70
2022-12-14T01:38:44.555Z,-0.60
2022-12-14T01:41:33.680Z,-0.70
2022-12-14T01:44:03.720Z,-0.70
2022-12-14T01:46:43.941Z,-0.70
2022-12-14T01:49:18.391Z,-0.70
2022-12-14T01:51:53.190Z,-0.70
2022-12-14T01:54:21.142Z,-0.70
2022-12-14T01:56:48.569Z,-0.70
2022-12-14T01:59:26.821Z,-0.80
2022-12-14T02:01:55.464Z,-0.80
2022-12-14T02:04:23.016Z,-0.80
2022-12-14T02:06:55.192Z,-0.80
2022-12-14T02:09:32.136Z,-0.80
2022-12-14T02:12:19.826Z,-0.80
2022-12-14T02:14:47.460Z,-0.80
2022-12-14T02:17:15.706Z,-0.80
2022-12-14T02:19:47.040Z,-0.80
2022-12-14T02:22:25.864Z,-0.80
2022-12-14T02:25:17.589Z,-0.90
2022-12-14T02:28:22.424Z,-0.90
2022-12-14T02:30:57.071Z,-0.90
2022-12-14T02:33:41.454Z,-0.90
2022-12-14T02:36:20.704Z,-0.90
2022-12-14T02:38:59.256Z,-0.90
2022-12-14T02:41:51.255Z,-0.90
2022-12-14T02:44:28.391Z,-0.90
2022-12-14T02:47:19.120Z,-0.90
2022-12-14T02:49:56.705Z,-1.00
2022-12-14T02:52:45.224Z,-0.90
2022-12-14T02:55:35.556Z,-1.00
2022-12-14T02:58:28.029Z,-1.00
2022-12-14T03:00:56.880Z,-1.10
2022-12-14T03:03:24.940Z,-1.00
2022-12-14T03:05:56.739Z,-1.10
2022-12-14T03:08:26.021Z,-1.20
2022-12-14T03:11:05.797Z,-1.20
2022-12-14T03:13:49.282Z,-1.20
2022-12-14T03:16:31.986Z,-1.30
2022-12-14T03:19:20.527Z,-1.40
2022-12-14T03:21:52.059Z,-1.40
2022-12-14T03:24:25.501Z,-1.40
2022-12-14T03:26:56.497Z,-1.50
2022-12-14T03:29:30.452Z,-1.50
2022-12-14T03:32:02.259Z,-1.60
2022-12-14T03:34:42.719Z,-1.60
2022-12-14T03:37:14.590Z,-1.60
2022-12-14T03:39:43.941Z,-1.60
2022-12-14T03:42:31.265Z,-1.70
2022-12-14T03:45:21.616Z,-1.70
2022-12-14T03:48:27.040Z,-1.70
2022-12-14T03:51:09.587Z,-1.80
2022-12-14T03:54:00.950Z,-1.80
2022-12-14T03:56:49.684Z,-1.80
2022-12-14T03:59:32.895Z,-1.90
2022-12-14T04:02:27.129Z,-1.90
2022-12-14T04:05:08.036Z,-2.00
2022-12-14T04:07:48.567Z,-2.00
2022-12-14T04:10:41.611Z,-2.10
2022-12-14T04:13:32.726Z,-2.10
2022-12-14T04:16:25.376Z,-2.10
2022-12-14T04:19:02.070Z,-2.10
2022-12-14T04:21:47.974Z,-2.20
2022-12-14T04:24:38.781Z,-2.20
2022-12-14T04:27:48.073Z,-2.30
2022-12-14T04:30:16.336Z,-2.30
2022-12-14T04:32:52.097Z,-2.30
2022-12-14T04:35:28.240Z,-2.30
2022-12-14T04:38:10.286Z,-2.30
2022-12-14T04:40:45.158Z,-2.30
2022-12-14T04:43:17.586Z,-2.30
2022-12-14T04:45:54.478Z,-2.40
2022-12-14T04:48:24.751Z,-2.30
2022-12-14T04:51:01.257Z,-2.30
2022-12-14T04:53:33.401Z,-2.30
2022-12-14T04:56:18.514Z,-2.40
2022-12-14T04:58:46.137Z,-2.40
2022-12-14T05:01:39.268Z,-0.80
2022-12-14T05:05:03.305Z,-2.40
2022-12-14T05:07:48.961Z,-2.40
2022-12-14T05:10:37.381Z,-2.50
2022-12-14T05:13:18.626Z,-2.50
2022-12-14T05:15:54.946Z,-2.60
2022-12-14T05:18:22.826Z,-2.60
2022-12-14T05:20:50.239Z,-2.60
2022-12-14T05:23:17.955Z,-2.60
2022-12-14T05:25:45.423Z,-2.70
2022-12-14T05:28:16.719Z,-2.70
2022-12-14T05:30:48.759Z,-2.70
2022-12-14T05:33:19.948Z,-2.80
2022-12-14T05:35:47.445Z,-2.70
2022-12-14T05:38:14.936Z,-2.70
2022-12-14T05:40:42.383Z,-2.70
2022-12-14T05:43:12.331Z,-2.70
2022-12-14T05:45:39.862Z,-2.70
2022-12-14T05:48:07.478Z,-2.70
2022-12-14T05:50:34.941Z,-2.70
2022-12-14T05:53:02.663Z,-2.70
2022-12-14T05:55:30.344Z,-2.80
2022-12-14T05:57:57.773Z,-2.80
2022-12-14T06:00:25.245Z,-2.80
2022-12-14T06:02:55.494Z,-2.80
2022-12-14T06:05:23.175Z,-2.80
2022-12-14T06:07:50.721Z,-2.90
2022-12-14T06:10:18.283Z,-3.00
2022-12-14T06:12:45.756Z,-2.90
2022-12-14T06:15:14.051Z,-2.90
2022-12-14T06:17:46.000Z,-3.00
2022-12-14T06:20:14.283Z,-0.70
2022-12-14T06:22:47.430Z,-2.90
2022-12-14T06:25:15.917Z,-3.20
2022-12-14T06:27:43.273Z,-0.50
2022-12-14T06:30:12.081Z,-1.50
2022-12-14T06:32:39.806Z,-3.00
2022-12-14T06:35:08.162Z,-3.00
2022-12-14T06:37:35.616Z,-3.00
2022-12-14T06:40:03.344Z,-3.00
2022-12-14T06:42:30.856Z,-3.00
2022-12-14T06:44:58.364Z,-3.10
2022-12-14T06:47:25.891Z,-3.10
2022-12-14T06:49:53.316Z,-3.20
2022-12-14T06:52:26.508Z,-3.20
2022-12-14T06:54:54.623Z,-3.30
2022-12-14T06:57:22.059Z,-3.30
2022-12-14T06:59:49.520Z,-3.30
2022-12-14T07:02:17.071Z,-3.30
2022-12-14T07:04:44.676Z,-3.30
2022-12-14T07:07:12.273Z,-3.40
2022-12-14T07:09:39.835Z,-3.40
2022-12-14T07:12:07.496Z,-3.30
2022-12-14T07:14:35.112Z,-3.20
2022-12-14T07:17:02.572Z,-3.20
2022-12-14T07:19:30.127Z,-3.20
2022-12-14T07:21:57.641Z,-3.20
2022-12-14T07:24:25.087Z,-3.20
2022-12-14T07:26:53.595Z,-3.20
2022-12-14T07:29:21.100Z,-3.30
2022-12-14T07:31:49.356Z,-3.20
2022-12-14T07:34:17.490Z,-3.20
2022-12-14T07:36:44.932Z,-3.20
2022-12-14T07:39:15.675Z,-3.20
2022-12-14T07:41:44.640Z,-3.10
2022-12-14T07:44:12.187Z,-3.10
2022-12-14T07:46:41.102Z,-3.10
2022-12-14T07:49:09.230Z,-3.00
2022-12-14T07:51:37.557Z,-3.30
2022-12-14T07:54:06.025Z,-0.80
2022-12-14T07:56:36.270Z,-3.10
2022-12-14T07:59:05.231Z,-3.10
2022-12-14T08:01:37.254Z,-3.40
2022-12-14T08:04:34.234Z,-3.10
2022-12-14T08:07:04.898Z,-3.40
2022-12-14T08:09:32.410Z,-2.10
2022-12-14T08:11:59.855Z,-3.20
2022-12-14T08:14:27.450Z,-3.20
2022-12-14T08:16:58.032Z,-3.20
2022-12-14T08:19:25.720Z,-3.20
2022-12-14T08:21:53.416Z,-1.30
2022-12-14T08:24:20.907Z,-3.20
2022-12-14T08:26:49.097Z,-3.20
2022-12-14T08:29:18.183Z,-3.20
2022-12-14T08:31:45.883Z,-3.20
2022-12-14T08:34:13.486Z,-3.20
2022-12-14T08:36:41.316Z,-2.20
2022-12-14T08:39:10.251Z,-3.10
2022-12-14T08:41:37.759Z,-3.00
2022-12-14T08:44:05.774Z,-3.00
2022-12-14T08:46:35.487Z,-2.90
2022-12-14T08:49:03.601Z,-2.90
2022-12-14T08:51:31.300Z,-2.90
2022-12-14T08:53:58.960Z,-1.30
2022-12-14T08:56:28.028Z,-2.90
2022-12-14T08:58:56.636Z,-2.90
2022-12-14T09:01:32.977Z,-2.80
2022-12-14T09:04:08.415Z,-2.70
2022-12-14T09:06:39.079Z,-2.70
2022-12-14T09:09:15.282Z,-2.60
2022-12-14T09:11:44.582Z,-1.70
2022-12-14T09:14:12.637Z,-2.60
2022-12-14T09:16:40.478Z,-1.30
2022-12-14T09:19:08.046Z,-2.30
2022-12-14T09:21:35.637Z,-2.10
2022-12-14T09:24:03.541Z,-1.90
2022-12-14T09:26:31.017Z,-1.80
2022-12-14T09:28:58.680Z,-1.70
2022-12-14T09:31:28.092Z,-1.60
2022-12-14T09:33:56.801Z,-1.50
2022-12-14T09:36:27.080Z,-1.40
2022-12-14T09:38:55.565Z,0.50
2022-12-14T09:41:35.148Z,-1.20
2022-12-14T09:44:18.818Z,-1.20
2022-12-14T09:47:05.364Z,-1.10
2022-12-14T09:49:40.273Z,-1.00
2022-12-14T09:52:20.175Z,-1.20
2022-12-14T09:54:57.626Z,0.70
2022-12-14T09:57:29.380Z,-1.30
2022-12-14T09:59:59.695Z,0.80
2022-12-14T10:02:40.305Z,0.40
2022-12-14T10:05:22.028Z,-0.80
2022-12-14T10:08:10.739Z,1.10
2022-12-14T10:11:03.791Z,-0.80
2022-12-14T10:14:06.464Z,-0.70
2022-12-14T10:17:01.107Z,-0.80
2022-12-14T10:19:40.880Z,-0.80
2022-12-14T10:22:14.070Z,0.40
2022-12-14T10:24:49.162Z,-0.90
2022-12-14T10:27:26.485Z,0.70
2022-12-14T10:30:06.378Z,1.10
2022-12-14T10:32:39.502Z,-0.60
2022-12-14T10:35:14.887Z,1.30
2022-12-14T10:37:45.482Z,0.60
2022-12-14T10:40:32.577Z,-0.70
2022-12-14T10:43:27.918Z,-0.60
2022-12-14T10:46:37.249Z,-0.70
2022-12-14T10:49:38.358Z,-0.60
2022-12-14T10:52:12.526Z,-0.60
2022-12-14T10:54:45.424Z,-0.60
2022-12-14T10:57:22.835Z,-0.40
2022-12-14T11:00:05.604Z,-1.50
2022-12-14T11:02:45.853Z,2.40
2022-12-14T11:05:41.231Z,-2.00
2022-12-14T11:08:09.696Z,2.10
2022-12-14T11:10:41.489Z,-0.30
2022-12-14T11:13:19.131Z,-0.40
2022-12-14T11:15:52.419Z,2.50
2022-12-14T11:18:20.262Z,0.80
2022-12-14T11:20:54.927Z,1.10
2022-12-14T11:23:29.500Z,-0.30
2022-12-14T11:26:03.491Z,-0.20
2022-12-14T11:28:41.335Z,1.80
2022-12-14T11:31:13.235Z,-0.40
2022-12-14T11:33:42.043Z,2.50
2022-12-14T11:36:24.863Z,1.30
2022-12-14T11:39:19.346Z,2.60
2022-12-14T11:41:50.672Z,1.60
2022-12-14T11:44:39.061Z,2.00
2022-12-14T11:47:16.941Z,1.60
2022-12-14T11:49:45.719Z,2.20
2022-12-14T11:52:18.437Z,-0.30
2022-12-14T11:54:52.327Z,1.40
2022-12-14T11:57:31.041Z,1.40
2022-12-14T12:00:06.490Z,-0.20
2022-12-14T12:02:36.066Z,-0.10
2022-12-14T12:05:17.256Z,2.10
2022-12-14T12:07:59.969Z,-0.10
2022-12-14T12:10:45.104Z,-0.20
2022-12-14T12:13:29.864Z,1.80
2022-12-14T12:16:00.905Z,-0.20
2022-12-14T12:18:46.536Z,-0.10
2022-12-14T12:21:33.540Z,-0.10
2022-12-14T12:24:04.207Z,-0.10
2022-12-14T12:26:54.010Z,-0.10
2022-12-14T12:29:30.430Z,0.00
2022-12-14T12:32:04.954Z,0.00
2022-12-14T12:34:51.936Z,0.10
2022-12-14T12:37:29.830Z,0.10
2022-12-14T12:40:00.474Z,-0.30
2022-12-14T12:43:11.556Z,0.10
2022-12-14T12:45:48.037Z,0.00
2022-12-14T12:48:37.549Z,0.10
2022-12-14T12:51:12.632Z,0.10
2022-12-14T12:53:44.603Z,0.10
2022-12-14T12:56:16.967Z,2.60
2022-12-14T12:58:52.273Z,1.80
2022-12-14T13:01:30.028Z,1.80
2022-12-14T13:04:02.746Z,2.10
2022-12-14T13:06:41.041Z,0.20
2022-12-14T13:09:37.604Z,0.20
2022-12-14T13:12:19.188Z,0.20
2022-12-14T13:14:49.746Z,2.50
2022-12-14T13:17:45.518Z,2.90
2022-12-14T13:20:28.395Z,0.30
2022-12-14T13:22:59.545Z,0.30
2022-12-14T13:26:13.413Z,0.30
2022-12-14T13:28:43.390Z,0.40
2022-12-14T13:31:46.052Z,0.40
2022-12-14T13:34:25.185Z,0.30
2022-12-14T13:37:20.638Z,0.30
2022-12-14T13:40:02.493Z,0.30
2022-12-14T13:42:52.312Z,0.30
2022-12-14T13:45:22.436Z,0.20
2022-12-14T13:47:55.443Z,0.60
2022-12-14T13:50:38.891Z,0.10
2022-12-14T13:53:16.287Z,0.30
2022-12-14T13:55:56.475Z,0.10
2022-12-14T13:58:41.967Z,0.00
2022-12-14T14:01:12.598Z,0.00
2022-12-14T14:03:41.409Z,2.20
2022-12-14T14:06:12.222Z,1.90
2022-12-14T14:08:42.918Z,-0.10
2022-12-14T14:11:38.689Z,1.60
2022-12-14T14:14:35.829Z,2.00
2022-12-14T14:17:25.359Z,-0.20
2022-12-14T14:19:56.076Z,-0.20
2022-12-14T14:22:27.648Z,-0.30
2022-12-14T14:25:09.886Z,-0.20
2022-12-14T14:27:38.780Z,-0.30
2022-12-14T14:30:35.677Z,-0.50
2022-12-14T14:33:44.816Z,-0.30
2022-12-14T14:36:35.908Z,0.10
2022-12-14T14:39:54.904Z,-0.50
2022-12-14T14:42:22.131Z,-0.50
2022-12-14T14:44:52.774Z,-1.10
2022-12-14T14:47:38.049Z,-0.60
2022-12-14T14:50:23.687Z,1.20
2022-12-14T14:53:01.916Z,-0.70
2022-12-14T14:58:26.551Z,0.70
2022-12-14T15:00:58.630Z,0.80
2022-12-14T15:03:34.806Z,-1.10
2022-12-14T15:06:03.204Z,-0.90
2022-12-14T15:08:43.908Z,-0.90
2022-12-14T15:12:14.113Z,-0.90
2022-12-14T15:15:00.508Z,-1.00
2022-12-14T15:17:28.229Z,-0.30
2022-12-14T15:20:01.284Z,-0.40
2022-12-14T15:22:43.316Z,1.60
2022-12-14T15:25:20.717Z,1.40
2022-12-14T15:27:48.632Z,-0.60
2022-12-14T15:30:25.237Z,1.30
2022-12-14T15:33:07.800Z,-0.60
2022-12-14T15:35:49.455Z,-0.40
2022-12-14T15:38:24.835Z,1.80
2022-12-14T15:40:57.089Z,0.70
2022-12-14T15:43:30.899Z,-0.50
2022-12-14T15:46:04.202Z,-0.60
2022-12-14T15:48:35.257Z,-0.50
2022-12-14T15:51:06.393Z,-0.50
2022-12-14T15:53:43.360Z,-0.50
2022-12-14T15:56:28.370Z,-0.50
2022-12-14T15:59:01.623Z,-0.50
2022-12-14T16:01:37.749Z,-0.50
2022-12-14T16:04:16.396Z,-0.60
2022-12-14T16:06:49.381Z,-0.50
2022-12-14T16:09:25.418Z,-0.50
2022-12-14T16:11:56.809Z,-0.50
2022-12-14T16:14:45.183Z,-0.50
2022-12-14T16:17:35.267Z,-0.50
2022-12-14T16:20:18.660Z,-0.50
2022-12-14T16:23:06.814Z,-0.50
2022-12-14T16:25:37.052Z,-0.40
2022-12-14T16:28:26.594Z,-0.40
2022-12-14T16:31:18.555Z,-0.40
2022-12-14T16:33:50.143Z,-0.40
2022-12-14T16:36:18.128Z,-0.30
2022-12-14T16:39:01.870Z,-0.30
2022-12-14T16:42:03.667Z,-0.30
2022-12-14T16:44:31.480Z,-0.30
2022-12-14T16:47:04.609Z,-0.30
2022-12-14T16:49:40.563Z,1.90
2022-12-14T16:52:30.489Z,1.10
2022-12-14T16:55:18.985Z,-0.20
2022-12-14T16:57:49.394Z,-0.20
2022-12-14T17:00:36.162Z,-0.20
2022-12-14T17:03:23.143Z,-0.10
2022-12-14T17:05:56.136Z,-0.10
2022-12-14T17:08:23.685Z,-0.10
2022-12-14T17:10:51.385Z,-0.10
2022-12-14T17:13:18.945Z,2.10
2022-12-14T17:16:07.541Z,0.00
2022-12-14T17:18:40.585Z,0.00
2022-12-14T17:21:15.399Z,0.30
2022-12-14T17:23:44.171Z,0.10
2022-12-14T17:26:30.999Z,0.00
2022-12-14T17:28:58.716Z,0.00
2022-12-14T17:31:27.415Z,2.20
2022-12-14T17:34:01.344Z,1.20
2022-12-14T17:36:29.162Z,1.90
2022-12-14T17:38:57.077Z,2.60
2022-12-14T17:41:26.622Z,2.60
2022-12-14T17:43:58.773Z,2.40
2022-12-14T17:46:26.719Z,2.70
2022-12-14T17:48:54.443Z,2.20
2022-12-14T17:51:27.984Z,0.30
2022-12-14T17:54:02.795Z,1.80
2022-12-14T17:56:30.526Z,0.10
2022-12-14T17:58:58.089Z,0.50
2022-12-14T18:01:35.147Z,0.20
2022-12-14T18:04:03.384Z,0.30
2022-12-14T18:06:31.622Z,2.30
2022-12-14T18:08:59.102Z,2.30
2022-12-14T18:11:29.595Z,0.40
2022-12-14T18:13:57.743Z,0.40
2022-12-14T18:16:30.637Z,1.40
2022-12-14T18:18:58.505Z,2.20
2022-12-14T18:21:29.932Z,1.90
2022-12-14T18:23:57.767Z,3.30
2022-12-14T18:26:25.312Z,3.00
2022-12-14T18:28:54.531Z,-1.40
2022-12-14T18:31:37.451Z,3.10
2022-12-14T18:34:05.303Z,0.50
2022-12-14T18:36:33.019Z,2.60
2022-12-14T18:39:01.126Z,0.60
2022-12-14T18:41:29.702Z,0.50
2022-12-14T18:44:00.469Z,0.60
2022-12-14T18:46:28.385Z,0.60
2022-12-14T18:48:56.081Z,0.60
2022-12-14T18:51:37.083Z,0.60
2022-12-14T18:54:05.370Z,0.50
2022-12-14T18:56:34.242Z,0.70
2022-12-14T18:59:01.768Z,2.40
2022-12-14T19:01:29.510Z,2.60
2022-12-14T19:03:57.296Z,2.20
2022-12-14T19:06:44.965Z,2.50
2022-12-14T19:09:14.390Z,0.60
2022-12-14T19:11:42.428Z,0.60
2022-12-14T19:14:10.309Z,0.60
2022-12-14T19:16:37.992Z,0.70
2022-12-14T19:19:06.094Z,0.60
2022-12-14T19:21:35.985Z,2.40
2022-12-14T19:24:04.139Z,1.90
2022-12-14T19:26:32.564Z,0.70
2022-12-14T19:29:00.392Z,0.70
2022-12-14T19:31:27.943Z,0.70
2022-12-14T19:33:55.941Z,1.20
2022-12-14T19:36:23.914Z,0.70
2022-12-14T19:38:51.642Z,0.70
2022-12-14T19:41:20.741Z,0.50
2022-12-14T19:43:48.695Z,3.20
2022-12-14T19:46:17.904Z,1.60
2022-12-14T19:48:48.705Z,2.30
2022-12-14T19:51:17.335Z,0.70
2022-12-14T19:53:47.222Z,0.70
2022-12-14T19:56:17.101Z,0.70
2022-12-14T19:58:44.726Z,3.00
2022-12-14T20:01:19.688Z,0.60
2022-12-14T20:03:52.970Z,0.60
2022-12-14T20:06:22.890Z,1.70
2022-12-14T20:08:50.332Z,1.60
2022-12-14T20:11:20.524Z,0.50
2022-12-14T20:13:53.182Z,0.50
2022-12-14T20:16:24.925Z,1.50
2022-12-14T20:18:52.503Z,0.40
2022-12-14T20:21:22.403Z,2.80
2022-12-14T20:23:50.585Z,1.70
2022-12-14T20:26:19.286Z,0.20
2022-12-14T20:28:54.091Z,0.20
2022-12-14T20:31:22.813Z,0.10
2022-12-14T20:33:50.731Z,1.00
2022-12-14T20:36:18.943Z,2.00
2022-12-14T20:38:49.280Z,-0.10
2022-12-14T20:41:17.442Z,-0.20
2022-12-14T20:43:45.220Z,-0.30
2022-12-14T20:46:32.643Z,-0.40
2022-12-14T20:49:05.465Z,-0.40
2022-12-14T20:51:35.792Z,-0.50
2022-12-14T20:54:05.462Z,-0.60
2022-12-14T20:56:35.029Z,-0.60
2022-12-14T20:59:02.893Z,1.50
2022-12-14T21:01:30.730Z,-1.00
2022-12-14T21:04:01.211Z,1.00
2022-12-14T21:06:29.141Z,0.40
2022-12-14T21:09:06.870Z,-1.80
2022-12-14T21:11:53.488Z,-1.10
2022-12-14T21:14:23.518Z,-1.20
2022-12-14T21:16:51.205Z,-1.20
2022-12-14T21:19:19.524Z,-1.30
2022-12-14T21:21:53.247Z,-1.30
2022-12-14T21:27:17.336Z,-1.40
2022-12-14T21:29:45.647Z,-1.40
2022-12-14T21:32:14.120Z,-1.50
2022-12-14T21:34:42.984Z,-1.50
2022-12-14T21:37:11.098Z,-1.10
2022-12-14T21:39:38.950Z,-1.50
2022-12-14T21:42:15.862Z,-1.60
2022-12-14T21:44:45.950Z,-1.60
2022-12-14T21:47:16.721Z,-1.70
2022-12-14T21:49:48.181Z,-1.70
2022-12-14T21:52:18.986Z,-1.70
2022-12-14T21:54:47.109Z,-1.80
2022-12-14T21:57:34.678Z,-1.90
2022-12-14T22:00:02.756Z,-1.90
2022-12-14T22:02:42.430Z,-0.20
2022-12-14T22:05:13.284Z,0.30
2022-12-14T22:07:43.075Z,-1.40
2022-12-14T22:10:10.567Z,-2.30
2022-12-14T22:12:38.097Z,-2.10
2022-12-14T22:15:11.178Z,-2.10
2022-12-14T22:17:38.723Z,-2.20
2022-12-14T22:20:07.237Z,-2.40
2022-12-14T22:22:34.910Z,-2.20
2022-12-14T22:25:03.523Z,-2.30
2022-12-14T22:27:31.500Z,-2.30
2022-12-14T22:29:58.923Z,-2.30
2022-12-14T22:32:26.971Z,-2.30
2022-12-14T22:34:54.443Z,-2.30
2022-12-14T22:37:22.059Z,-2.40
2022-12-14T22:39:49.650Z,-2.40
2022-12-14T22:42:17.156Z,-2.40
2022-12-14T22:44:45.083Z,-2.40
2022-12-14T22:47:12.539Z,-2.50
2022-12-14T22:49:40.500Z,-2.40
2022-12-14T22:52:08.045Z,-2.50
2022-12-14T22:54:38.436Z,-2.60
2022-12-14T22:57:13.236Z,-2.60
2022-12-14T22:59:47.136Z,-2.60
2022-12-14T23:02:14.997Z,-3.30
2022-12-14T23:04:42.862Z,-2.60
2022-12-14T23:07:10.766Z,-2.60
2022-12-14T23:09:56.942Z,-1.10
2022-12-14T23:12:42.809Z,-2.50
2022-12-14T23:15:29.545Z,-2.50
2022-12-14T23:18:26.301Z,0.40
2022-12-14T23:21:12.354Z,-2.60
2022-12-14T23:24:01.971Z,-2.60
2022-12-14T23:26:48.533Z,-2.60
2022-12-14T23:29:34.572Z,-2.60
2022-12-14T23:32:20.536Z,-2.60
2022-12-14T23:35:06.605Z,-2.70
2022-12-14T23:37:52.563Z,-2.70
2022-12-14T23:40:38.425Z,-2.70
2022-12-14T23:43:34.185Z,-2.80
2022-12-14T23:46:22.656Z,-2.70
2022-12-14T23:49:13.716Z,-2.70
2022-12-14T23:52:01.542Z,-2.80
2022-12-14T23:54:48.212Z,-2.80
2022-12-14T23:57:36.574Z,-2.90
